• Join FlightAware (Why Join?)
  • Login
  • US Flag 
09:28AM EDT


 

Airport Tracker/Info


-or-


 

Live Flight TrackerFlight Track Log ✈ DLH135 ✈ 20-Oct-2013 ✈ EDDS / STR - EDDF / FRA

Flight Track Log - Related Links

Times and Time Zones

All times are in EDT time to prevent confusion due to time zone crossing. See the DLH135 flight status page for this flight to view local times or setup timezone preferences in your user account.

Time Position Orientation Groundspeed Altitude Reporting Facility
EDT Latitude Longitude Course Direction KTS MPH feet Rate Location/Type
08:53AM 48.7320 9.1780 259° West 162 186 2,400  Level FlightAware
08:53AM 48.7280 9.1560 255° West 167 192 3,500 2,400 Climbing FlightAware
08:54AM 48.7240 9.1310 256° West 199 229 4,000 1,920 Climbing FlightAware
08:54AM 48.7210 9.1090 258° West 218 251 4,600 2,160 Climbing FlightAware
08:54AM 48.7200 9.0950 264° West 232 267 4,900 2,400 Climbing FlightAware
08:54AM 48.7200 9.0860 270° West 237 273 5,200 3,600 Climbing FlightAware
08:54AM 48.7210 9.0780 281° West 245 282 5,500 3,180 Climbing FlightAware
08:55AM 48.7260 9.0610 294° West 255 293 6,000 3,180 Climbing FlightAware
08:55AM 48.7300 9.0550 315° West 266 306 6,300 3,300 Climbing FlightAware
08:55AM 48.7450 9.0380 323° Northwest 283 326 7,100 3,360 Climbing FlightAware
08:55AM 48.7590 9.0310 342° North 300 345 7,700 3,300 Climbing FlightAware
08:55AM 48.7730 9.0300 357° North 304 350 8,200 3,360 Climbing FlightAware
08:56AM 48.8030 9.0350 North 320 368 9,400 3,660 Climbing FlightAware
08:56AM 48.8570 9.0500 10° North 316 364 11,700 3,240 Climbing FlightAware
08:57AM 48.9130 9.0640 North 328 377 13,500 2,400 Climbing FlightAware
08:57AM 48.9630 9.0760 North 345 397 14,600 1,500 Climbing FlightAware
08:58AM 49.0130 9.0880 North 365 420 15,100 1,020 Climbing FlightAware
08:58AM 49.0770 9.1050 10° North 385 443 15,800 720 Climbing FlightAware
08:59AM 49.1410 9.1210 North 395 455 16,000 120 Climbing FlightAware
09:00AM 49.2080 9.1380 North 395 455 16,000  Level FlightAware
09:00AM 49.2710 9.1540 North 396 456 16,000  Level FlightAware
09:01AM 49.3300 9.1690 North 399 459 16,000 -360 Level FlightAware
09:01AM 49.3950 9.1860 10° North 397 457 15,600 -1,200 Descending FlightAware
09:02AM 49.4580 9.2020 North 384 442 14,600 -1,620 Descending FlightAware
09:03AM 49.5200 9.2180 10° North 383 441 13,700 -1,560 Descending FlightAware
09:03AM 49.5760 9.2330 10° North 372 428 12,800 -1,620 Descending FlightAware
09:04AM 49.6360 9.2480 North 374 430 11,900 -1,620 Descending FlightAware
09:04AM 49.6980 9.2640 North 366 421 10,900 -1,680 Descending FlightAware
09:05AM 49.7490 9.2770 North 360 414 10,100 -1,020 Descending FlightAware
09:05AM 49.7900 9.2840 North 349 402 10,000 -120 Descending FlightAware
09:06AM 49.8440 9.2760 355° North 348 400 10,000 -540 Level FlightAware
09:06AM 49.8840 9.2710 355° North 338 389 9,500 -1,140 Descending FlightAware
09:07AM 49.9060 9.2680 355° North 330 380 9,200 -1,080 Descending FlightAware
09:07AM 49.9420 9.2620 354° North 317 365 8,800 -1,200 Descending FlightAware
09:07AM 49.9690 9.2570 353° North 308 354 8,400 -1,080 Descending FlightAware
09:08AM 49.9920 9.2530 354° North 301 346 8,100 -1,020 Descending FlightAware
09:08AM 50.0480 9.2530 360° North 289 333 7,400 -1,140 Descending FlightAware
09:08AM 50.0690 9.2550 North 285 328 7,100 -900 Descending FlightAware
09:09AM 50.1010 9.2590 North 272 313 6,800 -1,020 Descending FlightAware
09:09AM 50.1470 9.2630 North 266 306 6,100 -1,200 Descending FlightAware
09:10AM 50.1570 9.2620 356° North 261 300 6,000 -900 Descending FlightAware
09:10AM 50.1800 9.2530 346° North 259 298 5,700 -1,080 Descending FlightAware
09:10AM 50.2030 9.2440 346° North 258 297 5,300 -1,080 Descending FlightAware
09:10AM 50.2190 9.2380 347° North 256 295 5,100 -540 Descending FlightAware
09:11AM 50.2560 9.2240 346° North 254 292 4,900 -420 Descending FlightAware
09:11AM 50.2670 9.2180 341° North 246 283 4,800 -780 Descending FlightAware
09:11AM 50.2720 9.2130 327° Northwest 240 276 4,700 -1,020 Descending FlightAware
09:11AM 50.2730 9.2120 327° Northwest 240 276 4,700 -240 Level FlightAware
09:12AM 50.2830 9.1880 303° West 224 258 4,600 -360 Descending FlightAware
09:12AM 50.2820 9.1610 267° West 214 246 4,500 -720 Descending FlightAware
09:12AM 50.2770 9.1310 255° West 213 245 4,300 -600 Descending FlightAware
09:13AM 50.2730 9.1010 258° West 205 236 4,100 -600 Descending FlightAware
09:13AM 50.2680 9.0740 254° West 187 215 3,900 -180 Descending FlightAware
09:13AM 50.2620 9.0430 253° West 170 196 4,000 120 Climbing FlightAware
09:14AM 50.2560 9.0200 248° West 162 186 4,000  Level FlightAware
09:14AM 50.2520 8.9990 253° West 159 183 4,000  Level FlightAware
09:14AM 50.2450 8.9670 251° West 158 182 4,000  Level FlightAware
09:15AM 50.2400 8.9460 250° West 158 182 4,000  Level FlightAware
09:15AM 50.2360 8.9260 253° West 157 181 4,000  Level FlightAware
09:15AM 50.2320 8.9070 252° West 156 180 4,000  Level FlightAware
09:16AM 50.2270 8.8850 250° West 157 181 4,000  Level FlightAware
09:16AM 50.2220 8.8630 250° West 156 180 4,000 -180 Level FlightAware
09:16AM 50.2160 8.8360 251° West 161 185 3,900 -540 Descending FlightAware
09:17AM 50.2110 8.8150 250° West 159 183 3,600 -1,080 Descending FlightAware
09:17AM 50.2060 8.7920 251° West 162 186 3,200 -1,080 Descending FlightAware
09:17AM 50.2010 8.7710 250° West 159 183 2,900 -720 Descending FlightAware
09:18AM 50.1950 8.7440 251° West 156 180 2,700 -720 Descending FlightAware
09:18AM 50.1900 8.7240 249° West 157 181 2,400 -900 Descending FlightAware
09:19AM 50.1850 8.7020 250° West 150 173 2,100 -1,020 Descending FlightAware
09:19AM 50.1830 8.6920 253° West 141 162 1,900 -840 Descending FlightAware
09:19AM 50.1770 8.6690 248° West 136 157 1,600 -720 Descending FlightAware
09:19AM 50.1730 8.6500 252° West 142 163 1,400 -720 Descending FlightAware
09:20AM 50.1690 8.6360 246° West 143 165 1,200 -900 Descending FlightAware
09:20AM 50.1640 8.6170 248° West 143 165 900 -900 Descending FlightAware
09:21AM 50.1570 8.5890 249° West 141 162 500 -840 Descending FlightAware
09:21AM 50.1510 8.5610 252° West 125 144 -1,140 Descending FlightAware
09:31AM 50.0264 8.5431 185° South  Level Estimated